WEATHER DATA

TODAY
Time Temp. Dewp. Hum. Bar.
00:09 12.9 10.6 86 1007.7
00:18 12.7 10.4 86 1007.7
00:29 12.4 10 85 1007.8
00:39 12.2 9.8 85 1007.9
00:49 12 9.7 86 1007.9
00:58 11.8 9.5 86 1008.1
01:09 11.6 9.3 86 1008.1
01:19 11.4 9.1 86 1007.9
01:29 11.3 9 86 1007.6
01:39 11.1 9 87 1007.3
01:49 10.9 9 88 1007.4
01:59 10.9 9 88 1007.3
02:09 10.7 8.8 88 1007.1
02:20 10.6 8.9 89 1006.8
02:29 10.4 8.7 89 1006.7
02:39 10.2 8.6 90 1006.6
02:49 9.9 8.3 90 1006.6
03:00 9.7 8.1 90 1006.7
03:09 9.6 8 90 1007.1
03:19 9.6 8 90 1007.1
03:30 9.5 7.9 90 1007.1
03:40 9.4 7.8 90 1006.9
03:50 9.4 7.8 90 1007.2
04:00 9.3 7.7 90 1006.9
04:10 9.2 7.6 90 1006.8
04:20 9.1 7.5 90 1006.9
04:30 9.1 7.5 90 1007.3
04:40 9.1 7.5 90 1007.2
04:50 9.1 7.5 90 1007.1
05:00 9.1 7.5 90 1007.1
05:10 9 7.4 90 1007.1
05:21 9 7.4 90 1007.2
05:30 9 7.4 90 1007.3
05:40 9 7.4 90 1007.3
05:51 9 7.4 90 1007.2
06:01 9 7.4 90 1007.4
06:10 9 7.4 90 1007.5
06:21 9 7.6 91 1007.5
06:31 9 7.4 90 1007.6
06:41 9.1 7.5 90 1007.5
06:51 9.1 7.5 90 1007.5
07:01 9.1 7.5 90 1007.6
07:11 9.1 7.5 90 1007.7
07:21 9.1 7.5 90 1007.7
07:31 9.1 7.5 90 1007.7
07:41 9.1 7.5 90 1007.7
07:51 9.1 7.5 90 1007.7
08:01 9.2 7.8 91 1007.8
08:12 9.3 7.7 90 1007.8
08:22 9.4 7.8 90 1007.8
08:31 9.5 7.9 90 1007.8
08:42 9.6 7.9 89 1007.8
08:52 9.6 7.9 89 1007.8
09:02 9.6 8 90 1007.7
09:11 9.7 8 89 1007.7
09:22 9.8 8.1 89 1007.6
09:32 9.9 8.2 89 1007.4
09:42 9.9 8.2 89 1007.2
09:52 10 8.4 90 1007.2
10:02 10.1 8.4 89 1007.2
10:12 10.2 8.3 88 1007.3
10:22 10.2 8.3 88 1007.2
10:33 10.2 8.5 89 1007.1
10:42 10.3 8.6 89 1007.1
10:52 10.4 8.7 89 1007.2
11:03 10.4 8.7 89 1007.2
11:13 10.6 8.9 89 1007.1
11:23 10.7 8.8 88 1007.1
11:32 10.9 9 88 1006.9
11:43 11.1 9.2 88 1007.1
11:53 11.1 9 87 1007.2
12:03 11 8.9 87 1007.1
12:13 10.9 9 88 1007.1
12:23 11.1 9.2 88 1007.1
12:33 11.2 9.3 88 1007.1
12:43 11.2 9.3 88 1007.1
12:54 11.2 9.1 87 1007.1
13:03 11.1 9.2 88 1006.9
13:13 11.1 9.4 89 1006.9
13:24 11.2 9.3 88 1006.8
13:34 11.1 9.2 88 1006.8
13:43 11 9.1 88 1006.8
13:53 11 9.1 88 1006.9
14:04 10.9 9 88 1006.8
14:14 10.9 9.2 89 1006.8
14:24 10.8 9.1 89 1006.8
14:34 10.8 9.1 89 1006.7
14:44 10.8 9.1 89 1006.8
14:54 10.7 9 89 1006.8
15:04 10.6 8.9 89 1006.8
15:14 10.5 8.8 89 1006.7
15:24 10.4 8.7 89 1006.7
15:34 10.3 8.7 90 1006.6
15:45 10.3 8.7 90 1006.6
15:55 10.3 8.7 90 1006.6
16:04 10.3 8.7 90 1006.5
16:14 10.2 8.6 90 1006.7
16:25 10 8.4 90 1006.7

DAY STATISTIC

2021-05-12
TEMPERATURE
AVERAGE
10.2
HIGH
12.9
00:09
LOW
9.0
05:10
PRESSURE
AVERAGE
1007.2
HIGH
1008.1
00:58
LOW
1006.5
16:04
DEWPOINT
AVERAGE
8.4
HIGH
10.6
00:09
LOW
7.4
05:10
HUMIDITY
AVERAGE
89
HIGH
91
06:21
LOW
85
00:29
TEMPERATURE (°C)
LOW
9.0
HIGH
12.9
AVERAGE
10.2
PRESSURE (hpa)
LOW
1006.5
HIGH
1008.1
AVERAGE
1007.2
DEVICE